Terminal Aerodrome Forecast
Issued by NWS

Home | Current Version | Previous Version | Text Only | Print | Product List | Glossary On
Versions: 1 2 3 4 5 6 7 8 9 10 11 12 13 14 15 16
000
FTAK31 PANC 291356 AAA
TAFADU
TAF AMD
PADU 291356Z 2914/3012 VRB06KT P6SM VCSH SCT020 BKN030
      TEMPO 2914/2917 BKN015
     FM300300 34010KT P6SM VCSH BKN025 OVC050
     FM300600 34010G18KT P6SM VCSH SCT015 BKN025
      AMD NOT SKED=

USA.gov is the U.S. government's official web portal to all federal, state and local government web resources and services.